createdAt,value
2022-09-07T00:00:32.646Z,1.70
2022-09-07T00:01:32.603Z,1.50
2022-09-07T00:02:32.615Z,1.60
2022-09-07T00:03:32.564Z,1.60
2022-09-07T00:04:32.540Z,1.60
2022-09-07T00:05:32.432Z,1.70
2022-09-07T00:06:32.392Z,1.40
2022-09-07T00:07:32.346Z,1.90
2022-09-07T00:08:32.327Z,1.50
2022-09-07T00:09:32.268Z,1.40
2022-09-07T00:10:32.218Z,1.70
2022-09-07T00:11:32.190Z,1.40
2022-09-07T00:12:32.140Z,1.70
2022-09-07T00:13:32.094Z,1.40
2022-09-07T00:14:32.048Z,1.60
2022-09-07T00:15:32.005Z,1.50
2022-09-07T00:16:32.014Z,1.90
2022-09-07T00:17:31.918Z,1.60
2022-09-07T00:18:31.889Z,1.20
2022-09-07T00:19:31.833Z,1.50
2022-09-07T00:20:31.789Z,1.60
2022-09-07T00:21:31.744Z,1.60
2022-09-07T00:22:31.706Z,1.50
2022-09-07T00:23:31.658Z,1.40
2022-09-07T00:24:31.618Z,1.70
2022-09-07T00:25:32.143Z,1.40
2022-09-07T00:26:31.533Z,1.50
2022-09-07T00:27:31.486Z,1.60
2022-09-07T00:28:31.609Z,1.70
2022-09-07T00:29:31.398Z,1.70
2022-09-07T00:30:31.355Z,1.60
2022-09-07T00:31:31.455Z,1.90
2022-09-07T00:32:31.270Z,1.70
2022-09-07T00:33:31.223Z,1.60
2022-09-07T00:34:31.182Z,1.70
2022-09-07T00:35:31.137Z,1.80
2022-09-07T00:36:31.096Z,1.80
2022-09-07T00:37:31.051Z,1.90
2022-09-07T00:38:31.150Z,2.00
2022-09-07T00:39:30.985Z,1.80
2022-09-07T00:40:30.922Z,1.80
2022-09-07T00:41:30.880Z,1.90
2022-09-07T00:42:30.836Z,2.20
2022-09-07T00:43:30.798Z,2.00
2022-09-07T00:44:30.747Z,2.30
2022-09-07T00:45:30.708Z,2.50
2022-09-07T00:46:30.720Z,3.20
2022-09-07T00:47:30.617Z,2.90
2022-09-07T00:48:30.650Z,3.30
2022-09-07T00:49:30.530Z,4.00
2022-09-07T00:50:30.491Z,4.00
2022-09-07T00:51:30.458Z,3.90
2022-09-07T00:52:30.416Z,4.20
2022-09-07T00:53:30.357Z,4.70
2022-09-07T00:54:30.310Z,4.60
2022-09-07T00:55:30.270Z,4.50
2022-09-07T00:56:30.223Z,4.70
2022-09-07T00:57:30.182Z,4.50
2022-09-07T00:59:30.093Z,5.00
2022-09-07T01:00:30.053Z,4.90
2022-09-07T01:01:30.079Z,4.80
2022-09-07T01:02:30.092Z,5.20
2022-09-07T01:03:29.917Z,5.80
2022-09-07T01:04:29.875Z,5.80
2022-09-07T01:05:29.831Z,5.80
2022-09-07T01:06:29.787Z,5.50
2022-09-07T01:07:29.742Z,6.00
2022-09-07T01:08:29.882Z,6.40
2022-09-07T01:09:29.656Z,6.30
2022-09-07T01:10:29.613Z,5.60
2022-09-07T01:11:29.572Z,6.10
2022-09-07T01:15:06.146Z,5.30
2022-09-07T01:16:06.147Z,5.70
2022-09-07T01:17:06.048Z,4.80
2022-09-07T01:18:06.003Z,4.80
2022-09-07T01:19:05.971Z,4.00
2022-09-07T01:20:05.915Z,4.50
2022-09-07T01:24:22.531Z,4.90
2022-09-07T01:25:22.483Z,4.10
2022-09-07T01:26:22.442Z,3.90
2022-09-07T01:27:22.396Z,3.70
2022-09-07T01:28:22.356Z,3.70
2022-09-07T01:29:22.310Z,3.40
2022-09-07T01:30:22.266Z,3.10
2022-09-07T01:31:22.297Z,3.70
2022-09-07T01:32:22.180Z,2.90
2022-09-07T01:33:22.136Z,3.40
2022-09-07T01:34:22.090Z,3.40
2022-09-07T01:35:22.048Z,3.40
2022-09-07T01:36:22.002Z,3.10
2022-09-07T01:37:21.959Z,3.40
2022-09-07T01:38:21.919Z,3.10
2022-09-07T01:39:21.869Z,2.50
2022-09-07T01:40:21.830Z,2.40
2022-09-07T01:41:21.781Z,2.90
2022-09-07T01:42:21.739Z,2.80
2022-09-07T01:43:21.694Z,3.00
2022-09-07T01:44:21.652Z,2.80
2022-09-07T01:45:21.610Z,2.30
2022-09-07T01:46:21.613Z,2.30
2022-09-07T01:47:21.518Z,2.30
2022-09-07T01:48:21.477Z,2.70
2022-09-07T01:49:21.437Z,2.60
2022-09-07T01:50:21.387Z,3.00
2022-09-07T01:51:21.342Z,2.50
2022-09-07T01:52:21.306Z,2.20
2022-09-07T01:53:21.253Z,2.40
2022-09-07T01:54:21.212Z,2.90
2022-09-07T01:55:21.166Z,2.60
2022-09-07T01:56:21.124Z,2.70
2022-09-07T01:57:21.078Z,2.30
2022-09-07T01:58:21.038Z,2.30
2022-09-07T01:59:20.993Z,2.00
2022-09-07T02:00:20.948Z,1.90
2022-09-07T02:01:20.972Z,2.00
2022-09-07T02:02:20.982Z,2.00
2022-09-07T02:03:20.815Z,2.00
2022-09-07T02:04:20.776Z,2.20
2022-09-07T02:05:20.728Z,1.80
2022-09-07T02:06:20.684Z,1.90
2022-09-07T02:07:20.642Z,1.60
2022-09-07T02:08:20.597Z,1.90
2022-09-07T02:09:20.553Z,1.80
2022-09-07T02:10:20.511Z,2.00
2022-09-07T02:11:20.467Z,2.10
2022-09-07T02:12:20.422Z,1.70
2022-09-07T02:13:20.376Z,1.60
2022-09-07T02:14:20.334Z,1.70
2022-09-07T02:15:20.289Z,1.50
2022-09-07T02:16:20.282Z,1.50
2022-09-07T02:17:20.205Z,1.60
2022-09-07T02:18:20.158Z,1.60
2022-09-07T02:19:20.123Z,1.80
2022-09-07T02:20:20.069Z,2.00
2022-09-07T02:21:20.035Z,1.90
2022-09-07T02:22:19.982Z,1.50
2022-09-07T02:23:19.938Z,1.60
2022-09-07T02:24:19.898Z,1.60
2022-09-07T02:25:19.848Z,1.60
2022-09-07T02:26:19.805Z,1.50
2022-09-07T02:27:19.764Z,1.40
2022-09-07T02:28:19.719Z,1.50
2022-09-07T02:29:19.673Z,1.50
2022-09-07T02:30:19.632Z,1.40
2022-09-07T02:31:19.622Z,1.30
2022-09-07T02:32:19.541Z,1.40
2022-09-07T02:33:19.495Z,1.40
2022-09-07T02:34:19.455Z,1.60
2022-09-07T02:35:19.410Z,1.50
2022-09-07T02:36:19.368Z,1.60
2022-09-07T02:37:19.323Z,1.70
2022-09-07T02:38:19.280Z,1.50
2022-09-07T02:39:19.233Z,1.70
2022-09-07T02:40:19.190Z,1.40
2022-09-07T02:41:19.149Z,1.80
2022-09-07T02:42:19.104Z,1.60
2022-09-07T02:43:19.057Z,1.80
2022-09-07T02:44:19.017Z,1.90
2022-09-07T02:46:12.446Z,1.90
2022-09-07T02:47:12.319Z,1.60
2022-09-07T02:49:25.692Z,1.80
2022-09-07T02:51:09.033Z,1.90
2022-09-07T02:52:08.985Z,2.00
2022-09-07T02:53:08.942Z,1.80
2022-09-07T02:54:08.897Z,1.70
2022-09-07T02:55:08.858Z,1.70
2022-09-07T02:56:08.808Z,1.70
2022-09-07T02:57:08.767Z,2.10
2022-09-07T02:58:08.720Z,1.80
2022-09-07T02:59:08.680Z,2.00
2022-09-07T03:00:08.633Z,2.00
2022-09-07T03:01:08.683Z,2.10
2022-09-07T03:02:08.579Z,1.80
2022-09-07T03:03:08.509Z,1.90
2022-09-07T03:04:08.457Z,2.20
2022-09-07T03:05:08.415Z,1.80
2022-09-07T03:06:08.367Z,2.80
2022-09-07T03:07:08.328Z,2.30
2022-09-07T03:08:08.280Z,2.10
2022-09-07T03:09:08.238Z,1.90
2022-09-07T03:10:08.191Z,2.00
2022-09-07T03:11:08.150Z,2.50
2022-09-07T03:12:08.105Z,2.10
2022-09-07T03:13:08.060Z,2.10
2022-09-07T03:14:08.014Z,2.30
2022-09-07T03:15:07.974Z,2.30
2022-09-07T03:16:07.966Z,2.40
2022-09-07T03:17:07.884Z,2.60
2022-09-07T03:18:07.844Z,2.50
2022-09-07T03:19:07.800Z,2.40
2022-09-07T03:20:07.750Z,2.70
2022-09-07T03:21:07.706Z,2.50
2022-09-07T03:22:07.662Z,2.60
2022-09-07T03:23:07.618Z,2.60
2022-09-07T03:24:07.574Z,2.90
2022-09-07T03:25:07.531Z,2.70
2022-09-07T03:26:07.487Z,2.80
2022-09-07T03:27:07.442Z,3.00
2022-09-07T03:28:07.396Z,3.10
2022-09-07T03:29:07.354Z,3.20
2022-09-07T03:30:07.308Z,3.50
2022-09-07T03:31:07.378Z,4.10
2022-09-07T03:32:07.220Z,4.30
2022-09-07T03:33:07.182Z,3.80
2022-09-07T03:34:07.131Z,3.90
2022-09-07T03:35:07.089Z,4.90
2022-09-07T03:36:07.042Z,5.20
2022-09-07T03:37:07.000Z,4.60
2022-09-07T03:38:06.954Z,4.60
2022-09-07T03:39:06.913Z,4.70
2022-09-07T03:40:06.910Z,5.30
2022-09-07T03:41:06.825Z,5.30
2022-09-07T03:42:06.781Z,5.60
2022-09-07T03:43:06.737Z,5.20
2022-09-07T03:44:06.693Z,5.40
2022-09-07T03:45:06.651Z,5.40
2022-09-07T03:46:06.677Z,5.40
2022-09-07T03:50:08.200Z,5.70
2022-09-07T03:51:08.151Z,6.50
2022-09-07T03:52:08.110Z,6.60
2022-09-07T03:53:08.063Z,7.50
2022-09-07T03:54:08.020Z,7.20
2022-09-07T03:55:07.974Z,7.90
2022-09-07T03:56:07.932Z,7.80
2022-09-07T03:57:07.886Z,8.20
2022-09-07T03:58:07.842Z,9.20
2022-09-07T03:59:08.001Z,8.90
2022-09-07T04:00:07.756Z,9.70
2022-09-07T04:01:07.769Z,9.90
2022-09-07T04:02:07.719Z,9.50
2022-09-07T04:03:07.620Z,9.80
2022-09-07T04:04:07.578Z,12.40
2022-09-07T04:05:07.531Z,11.90
2022-09-07T04:06:07.490Z,12.10
2022-09-07T04:07:07.446Z,13.10
2022-09-07T04:08:07.398Z,12.90
2022-09-07T04:10:25.780Z,12.80
2022-09-07T04:11:25.732Z,15.20
2022-09-07T04:12:25.690Z,15.00
2022-09-07T04:13:25.645Z,14.70
2022-09-07T04:14:25.602Z,16.40
2022-09-07T04:15:25.562Z,17.10
2022-09-07T04:16:25.803Z,16.90
2022-09-07T04:17:25.466Z,17.80
2022-09-07T04:18:25.455Z,17.30
2022-09-07T04:49:43.442Z,19.20
2022-09-07T04:50:43.396Z,19.80
2022-09-07T04:51:43.354Z,18.90
2022-09-07T04:52:43.306Z,19.00
2022-09-07T04:53:43.264Z,19.50
2022-09-07T04:54:43.225Z,19.30
2022-09-07T04:55:43.178Z,19.60
2022-09-07T04:56:43.132Z,19.20
2022-09-07T04:57:43.087Z,20.90
2022-09-07T04:58:43.045Z,21.00
2022-09-07T04:59:43.005Z,19.10
2022-09-07T05:00:42.952Z,21.20
2022-09-07T05:01:42.954Z,20.90
2022-09-07T05:02:42.937Z,20.50
2022-09-07T05:03:42.825Z,20.40
2022-09-07T05:04:42.774Z,20.00
2022-09-07T05:05:42.732Z,20.70
2022-09-07T05:06:42.689Z,20.70
2022-09-07T05:07:42.647Z,20.00
2022-09-07T05:08:42.602Z,21.50
2022-09-07T05:09:42.556Z,22.70
2022-09-07T05:10:42.510Z,21.20
2022-09-07T05:11:42.466Z,21.30
2022-09-07T05:12:42.419Z,21.20
2022-09-07T05:13:42.380Z,22.50
2022-09-07T05:14:42.332Z,23.50
2022-09-07T05:15:42.297Z,22.70
2022-09-07T05:16:42.363Z,23.70
2022-09-07T05:17:42.203Z,23.90
2022-09-07T05:18:42.156Z,24.90
2022-09-07T05:19:42.115Z,22.90
2022-09-07T05:20:42.070Z,23.20
2022-09-07T05:21:42.025Z,23.20
2022-09-07T05:22:41.978Z,24.00
2022-09-07T05:23:41.938Z,24.70
2022-09-07T05:24:41.890Z,23.80
2022-09-07T05:25:41.845Z,22.50
2022-09-07T05:26:41.803Z,24.40
2022-09-07T05:27:41.758Z,24.60
2022-09-07T05:28:41.713Z,23.50
2022-09-07T05:31:41.582Z,24.60
2022-09-07T05:32:41.534Z,23.80
2022-09-07T05:34:41.448Z,23.80
2022-09-07T05:35:41.404Z,24.40
2022-09-07T05:36:41.358Z,24.20
2022-09-07T05:37:41.318Z,23.90
2022-09-07T05:38:41.271Z,24.50
2022-09-07T05:39:41.256Z,24.70
2022-09-07T05:40:41.202Z,25.40
2022-09-07T05:41:41.139Z,25.00
2022-09-07T05:42:41.092Z,23.90
2022-09-07T05:45:41.043Z,25.10
2022-09-07T05:46:40.914Z,23.70
2022-09-07T05:47:40.873Z,24.20
2022-09-07T05:48:40.828Z,24.70
2022-09-07T05:49:40.790Z,24.20
2022-09-07T05:50:40.742Z,23.30
2022-09-07T05:51:40.697Z,23.60
2022-09-07T05:52:40.652Z,24.00
2022-09-07T05:53:40.607Z,23.90
2022-09-07T05:54:40.565Z,22.30
2022-09-07T05:55:40.520Z,23.20
2022-09-07T05:56:40.472Z,24.00
2022-09-07T05:57:40.431Z,24.60
2022-09-07T05:58:40.386Z,22.80
2022-09-07T05:59:40.343Z,23.40
2022-09-07T06:00:40.296Z,23.40
2022-09-07T06:01:40.320Z,23.20
2022-09-07T06:02:40.325Z,24.10
2022-09-07T06:03:40.165Z,23.10
2022-09-07T06:04:40.119Z,23.20
2022-09-07T06:05:40.077Z,22.40
2022-09-07T06:06:40.033Z,21.90
2022-09-07T06:07:39.991Z,21.50
2022-09-07T06:08:39.944Z,22.00
2022-09-07T06:11:39.820Z,21.90
2022-09-07T06:12:39.766Z,22.20
2022-09-07T06:13:39.729Z,22.70
2022-09-07T06:14:39.679Z,22.20
2022-09-07T06:15:39.637Z,21.70
2022-09-07T06:16:39.640Z,22.30
2022-09-07T06:17:39.548Z,22.30
2022-09-07T06:18:39.533Z,21.40
2022-09-07T06:19:39.467Z,21.80
2022-09-07T06:20:39.416Z,22.90
2022-09-07T06:21:39.371Z,22.70
2022-09-07T06:22:39.333Z,22.10
2022-09-07T06:23:39.290Z,22.20
2022-09-07T06:24:39.236Z,21.80
2022-09-07T06:25:39.194Z,22.00
2022-09-07T06:26:39.149Z,22.30
2022-09-07T06:27:39.106Z,22.00
2022-09-07T06:28:39.063Z,21.30
2022-09-07T06:29:39.026Z,22.20
2022-09-07T06:30:38.974Z,22.50
2022-09-07T06:33:38.844Z,22.70
2022-09-07T06:34:38.803Z,23.00
2022-09-07T06:35:38.754Z,23.10
2022-09-07T06:36:38.708Z,23.60
2022-09-07T06:37:38.666Z,22.20
2022-09-07T06:38:38.619Z,22.80
2022-09-07T06:39:38.661Z,23.50
2022-09-07T06:40:38.532Z,23.60
2022-09-07T06:42:38.449Z,23.30
2022-09-07T06:43:40.795Z,23.30
2022-09-07T06:44:38.357Z,23.30
2022-09-07T06:45:38.383Z,23.20
2022-09-07T06:47:38.228Z,22.70
2022-09-07T06:48:40.495Z,22.70
2022-09-07T06:49:38.140Z,22.80
2022-09-07T06:50:38.094Z,22.90
2022-09-07T06:51:38.053Z,23.20
2022-09-07T06:53:39.582Z,22.40
2022-09-07T06:55:37.876Z,22.40
2022-09-07T06:56:37.830Z,23.10
2022-09-07T06:57:37.786Z,22.30
2022-09-07T06:58:42.233Z,22.20
2022-09-07T06:59:37.727Z,21.10
2022-09-07T07:00:37.711Z,20.50
2022-09-07T07:01:37.614Z,20.60
2022-09-07T07:02:37.571Z,19.70
2022-09-07T07:03:37.557Z,19.10
2022-09-07T07:04:40.827Z,19.20
2022-09-07T07:05:37.439Z,19.20
2022-09-07T07:06:37.393Z,19.90
2022-09-07T07:07:37.354Z,18.90
2022-09-07T07:08:37.307Z,18.30
2022-09-07T07:09:37.264Z,19.90
2022-09-07T07:10:37.221Z,20.30
2022-09-07T07:11:37.191Z,19.50
2022-09-07T07:13:57.792Z,18.80
2022-09-07T07:14:57.747Z,19.30
2022-09-07T07:15:57.740Z,18.10
2022-09-07T07:16:57.663Z,18.10
2022-09-07T07:18:02.678Z,18.50
2022-09-07T07:18:57.573Z,17.90
2022-09-07T07:19:57.531Z,17.60
2022-09-07T07:20:57.487Z,17.40
2022-09-07T07:22:57.401Z,17.60
2022-09-07T07:23:57.362Z,17.20
2022-09-07T07:24:57.314Z,17.40
2022-09-07T07:25:57.272Z,16.90
2022-09-07T07:26:57.227Z,17.00
2022-09-07T07:27:57.308Z,17.20
2022-09-07T07:29:00.470Z,17.30
2022-09-07T07:29:57.098Z,17.20
2022-09-07T07:30:57.078Z,16.80
2022-09-07T07:31:57.017Z,16.20
2022-09-07T07:32:57.033Z,16.20
2022-09-07T07:33:57.027Z,17.20
2022-09-07T07:34:56.883Z,17.40
2022-09-07T07:35:56.839Z,16.80
2022-09-07T07:36:56.800Z,17.20
2022-09-07T07:41:58.932Z,16.40
2022-09-07T07:42:56.538Z,15.60
2022-09-07T07:43:56.494Z,16.10
2022-09-07T07:45:56.473Z,15.90
2022-09-07T07:46:56.388Z,16.40
2022-09-07T07:47:56.318Z,16.40
2022-09-07T07:48:56.273Z,16.40
2022-09-07T07:50:30.936Z,16.50
2022-09-07T07:50:56.200Z,15.80
2022-09-07T07:53:56.416Z,15.10
2022-09-07T07:54:56.015Z,15.90
2022-09-07T07:55:55.987Z,14.80
2022-09-07T07:56:55.930Z,15.30
2022-09-07T07:57:55.889Z,14.90
2022-09-07T07:58:55.859Z,15.40
2022-09-07T07:59:55.798Z,15.30
2022-09-07T08:00:56.461Z,14.10
2022-09-07T08:01:55.864Z,15.60
2022-09-07T08:02:55.668Z,13.40
2022-09-07T08:03:55.629Z,13.90
2022-09-07T08:04:55.582Z,13.20
2022-09-07T08:05:55.554Z,13.10
2022-09-07T08:06:55.500Z,13.90
2022-09-07T08:07:55.452Z,13.10
2022-09-07T08:08:55.411Z,13.50
2022-09-07T08:09:55.370Z,12.80
2022-09-07T08:10:55.326Z,12.20
2022-09-07T08:11:55.279Z,11.50
2022-09-07T08:12:55.239Z,10.90
2022-09-07T08:13:55.194Z,10.60
2022-09-07T08:14:55.151Z,10.00
2022-09-07T08:15:55.139Z,10.40
2022-09-07T08:16:55.067Z,10.70
2022-09-07T08:17:55.025Z,10.30
2022-09-07T08:18:54.978Z,9.50
2022-09-07T08:19:54.940Z,9.90
2022-09-07T08:20:54.895Z,9.80
2022-09-07T08:21:54.875Z,9.60
2022-09-07T08:22:54.805Z,9.70
2022-09-07T08:23:54.762Z,8.90
2022-09-07T08:24:54.721Z,10.10
2022-09-07T08:25:54.687Z,9.90
2022-09-07T08:26:54.635Z,9.60
2022-09-07T08:27:54.591Z,9.40
2022-09-07T08:28:54.547Z,9.80
2022-09-07T08:29:54.503Z,9.50
2022-09-07T08:30:54.461Z,9.10
2022-09-07T08:31:54.586Z,9.10
2022-09-07T08:32:54.379Z,9.70
2022-09-07T08:33:54.338Z,9.40
2022-09-07T08:34:54.338Z,9.10
2022-09-07T08:35:54.243Z,8.80
2022-09-07T08:36:54.206Z,8.30
2022-09-07T08:37:54.188Z,8.40
2022-09-07T08:38:54.329Z,8.50
2022-09-07T08:39:54.746Z,8.80
2022-09-07T08:40:54.211Z,8.30
2022-09-07T08:41:54.226Z,9.00
2022-09-07T08:42:57.911Z,9.00
2022-09-07T08:46:11.935Z,9.80
2022-09-07T08:46:58.824Z,9.70
2022-09-07T08:48:53.688Z,9.60
2022-09-07T08:49:53.978Z,9.80
2022-09-07T08:50:53.744Z,10.00
2022-09-07T08:51:55.345Z,10.00
2022-09-07T08:52:59.729Z,9.60
2022-09-07T08:53:53.679Z,9.90
2022-09-07T08:54:53.604Z,9.80
2022-09-07T08:55:53.587Z,9.40
2022-09-07T08:57:53.932Z,10.20
2022-09-07T08:58:53.470Z,10.00
2022-09-07T08:59:53.429Z,10.30
2022-09-07T09:01:30.570Z,10.10
2022-09-07T09:05:53.038Z,10.90
2022-09-07T09:06:53.044Z,10.50
2022-09-07T09:07:52.859Z,10.90
2022-09-07T09:08:52.833Z,10.50
2022-09-07T09:09:52.778Z,11.30
2022-09-07T09:10:52.730Z,10.80
2022-09-07T09:11:52.685Z,11.30
2022-09-07T09:12:52.642Z,10.70
2022-09-07T09:13:52.603Z,11.40
2022-09-07T09:14:52.558Z,10.90
2022-09-07T09:15:52.593Z,10.50
2022-09-07T09:16:52.470Z,11.00
2022-09-07T09:17:52.430Z,10.60
2022-09-07T09:18:52.384Z,11.10
2022-09-07T09:19:52.338Z,10.80
2022-09-07T09:20:52.302Z,11.50
2022-09-07T09:21:52.252Z,11.20
2022-09-07T09:22:52.228Z,11.80
2022-09-07T09:23:52.167Z,11.70
2022-09-07T09:24:52.143Z,11.90
2022-09-07T09:25:52.080Z,11.30
2022-09-07T09:26:52.044Z,11.20
2022-09-07T09:27:51.999Z,12.00
2022-09-07T09:28:51.954Z,11.80
2022-09-07T09:29:51.907Z,11.80
2022-09-07T09:30:51.927Z,11.70
2022-09-07T09:31:51.819Z,12.50
2022-09-07T09:32:51.777Z,11.60
2022-09-07T09:33:51.734Z,12.30
2022-09-07T09:34:51.692Z,12.00
2022-09-07T09:35:51.647Z,12.00
2022-09-07T09:36:51.607Z,11.80
2022-09-07T09:37:51.562Z,12.10
2022-09-07T09:38:51.524Z,13.70
2022-09-07T09:39:53.989Z,13.80
2022-09-07T09:40:51.453Z,13.90
2022-09-07T09:41:51.392Z,13.60
2022-09-07T09:42:51.346Z,14.50
2022-09-07T09:43:51.303Z,15.20
2022-09-07T09:44:51.265Z,15.40
2022-09-07T09:47:29.635Z,16.90
2022-09-07T09:47:51.244Z,17.20
2022-09-07T09:48:51.090Z,17.10
2022-09-07T09:49:51.046Z,17.60
2022-09-07T09:52:52.040Z,17.00
2022-09-07T09:53:50.875Z,15.60
2022-09-07T09:54:50.831Z,15.10
2022-09-07T09:55:50.788Z,14.70
2022-09-07T09:56:50.826Z,13.70
2022-09-07T09:59:56.909Z,12.00
2022-09-07T10:00:01.502Z,11.90
2022-09-07T10:03:59.504Z,10.50
2022-09-07T10:04:50.406Z,10.30
2022-09-07T10:05:50.365Z,9.50
2022-09-07T10:06:50.320Z,9.30
2022-09-07T10:07:50.276Z,9.40
2022-09-07T10:08:50.234Z,9.30
2022-09-07T10:09:50.193Z,9.10
2022-09-07T10:10:50.148Z,9.50
2022-09-07T10:12:06.278Z,9.50
2022-09-07T10:12:50.144Z,10.20
2022-09-07T10:13:50.021Z,9.90
2022-09-07T10:14:49.978Z,10.70
2022-09-07T10:15:49.969Z,10.00
2022-09-07T10:16:49.893Z,10.10
2022-09-07T10:17:49.849Z,10.00
2022-09-07T10:18:49.815Z,9.80
2022-09-07T10:19:49.791Z,9.40
2022-09-07T10:20:49.723Z,9.50
2022-09-07T10:21:49.681Z,9.60
2022-09-07T10:22:51.488Z,10.00
2022-09-07T10:23:49.595Z,10.10
2022-09-07T10:24:49.553Z,9.90
2022-09-07T10:25:49.510Z,9.60
2022-09-07T10:26:49.471Z,9.90
2022-09-07T10:27:49.425Z,9.90
2022-09-07T10:29:49.337Z,10.50
2022-09-07T10:30:49.379Z,10.20
2022-09-07T10:31:49.267Z,10.10
2022-09-07T10:32:49.211Z,10.20
2022-09-07T10:34:49.127Z,11.10
2022-09-07T10:35:49.085Z,11.10
2022-09-07T10:36:49.042Z,10.90
2022-09-07T10:37:48.999Z,12.00
2022-09-07T10:38:48.957Z,12.40
2022-09-07T10:39:48.951Z,11.80
2022-09-07T10:40:48.874Z,12.20
2022-09-07T10:41:48.830Z,12.40
2022-09-07T10:43:48.746Z,12.90
2022-09-07T10:44:48.721Z,12.40
2022-09-07T10:45:48.661Z,11.80
2022-09-07T10:47:03.945Z,12.70
2022-09-07T10:47:48.577Z,12.70
2022-09-07T10:48:48.537Z,12.30
2022-09-07T10:50:48.451Z,10.80
2022-09-07T10:51:48.408Z,10.90
2022-09-07T10:52:48.368Z,10.30
2022-09-07T10:54:30.092Z,10.10
2022-09-07T10:54:48.282Z,10.00
2022-09-07T10:55:48.238Z,9.40
2022-09-07T10:56:48.212Z,9.00
2022-09-07T10:57:49.241Z,8.30
2022-09-07T10:59:04.216Z,8.70
2022-09-07T11:00:48.049Z,8.40
2022-09-07T11:01:48.016Z,8.10
2022-09-07T11:03:47.917Z,8.50
2022-09-07T11:04:47.860Z,8.20
2022-09-07T11:05:47.816Z,7.20
2022-09-07T11:06:47.773Z,7.00
2022-09-07T11:07:47.729Z,7.10
2022-09-07T11:09:47.646Z,7.00
2022-09-07T11:10:47.605Z,7.00
2022-09-07T11:12:04.022Z,7.10
2022-09-07T11:12:47.520Z,6.20
2022-09-07T11:14:11.379Z,6.50
2022-09-07T11:14:47.437Z,5.70
2022-09-07T11:15:47.446Z,5.80
2022-09-07T11:16:51.248Z,5.30
2022-09-07T11:17:52.009Z,5.70
2022-09-07T11:18:47.269Z,5.90
2022-09-07T11:19:47.233Z,6.70
2022-09-07T11:20:47.858Z,5.40
2022-09-07T11:22:02.578Z,5.40
2022-09-07T11:22:47.123Z,5.80
2022-09-07T11:23:47.059Z,5.40
2022-09-07T11:24:47.415Z,5.90
2022-09-07T11:25:46.994Z,5.90
2022-09-07T11:26:46.938Z,5.60
2022-09-07T11:27:46.888Z,6.10
2022-09-07T11:28:47.173Z,5.80
2022-09-07T11:29:46.804Z,6.50
2022-09-07T11:30:46.787Z,6.20
2022-09-07T11:31:46.722Z,5.80
2022-09-07T11:32:46.696Z,6.80
2022-09-07T11:34:23.896Z,7.20
2022-09-07T11:34:46.624Z,7.40
2022-09-07T11:35:46.555Z,6.80
2022-09-07T11:36:46.512Z,7.30
2022-09-07T11:37:46.469Z,7.40
2022-09-07T11:38:46.435Z,7.90
2022-09-07T11:39:46.421Z,7.70
2022-09-07T11:40:46.342Z,6.80
2022-09-07T11:41:46.303Z,6.60
2022-09-07T11:42:46.315Z,6.80
2022-09-07T11:43:46.216Z,6.70
2022-09-07T11:44:46.175Z,6.40
2022-09-07T11:45:46.133Z,7.60
2022-09-07T11:46:46.198Z,7.00
2022-09-07T11:47:46.049Z,7.00
2022-09-07T11:48:46.027Z,6.90
2022-09-07T11:49:51.517Z,7.20
2022-09-07T11:50:45.923Z,7.60
2022-09-07T11:51:45.880Z,6.70
2022-09-07T11:52:45.850Z,6.40
2022-09-07T11:53:45.799Z,6.80
2022-09-07T11:54:45.752Z,6.70
2022-09-07T11:55:45.712Z,7.50
2022-09-07T11:56:46.025Z,7.00
2022-09-07T11:57:45.630Z,7.00
2022-09-07T11:58:45.586Z,6.50
2022-09-07T11:59:45.549Z,6.70
2022-09-07T12:00:45.504Z,6.60
2022-09-07T12:01:45.463Z,6.80
2022-09-07T12:02:58.934Z,6.00
2022-09-07T12:03:45.486Z,6.60
2022-09-07T12:04:45.414Z,6.10
2022-09-07T12:05:45.295Z,7.50
2022-09-07T12:06:45.254Z,7.00
2022-09-07T12:07:45.213Z,7.50
2022-09-07T12:08:45.186Z,7.20
2022-09-07T12:09:45.129Z,6.80
2022-09-07T12:10:45.087Z,7.20
2022-09-07T12:11:45.047Z,6.40
2022-09-07T12:12:45.008Z,6.40
2022-09-07T12:13:44.961Z,6.20
2022-09-07T12:14:44.921Z,5.70
2022-09-07T12:15:44.938Z,5.70
2022-09-07T12:16:44.839Z,6.10
2022-09-07T12:17:44.798Z,6.10
2022-09-07T12:18:44.756Z,6.40
2022-09-07T12:19:44.716Z,6.70
2022-09-07T12:20:44.690Z,6.90
2022-09-07T12:21:44.636Z,6.80
2022-09-07T12:22:44.591Z,6.50
2022-09-07T12:23:44.550Z,6.10
2022-09-07T12:24:44.514Z,5.50
2022-09-07T12:25:44.470Z,6.30
2022-09-07T12:26:44.426Z,6.30
2022-09-07T12:27:44.398Z,6.80
2022-09-07T12:28:44.344Z,6.50
2022-09-07T12:29:45.605Z,6.40
2022-09-07T12:30:44.304Z,6.40
2022-09-07T12:31:57.253Z,6.30
2022-09-07T12:32:59.645Z,6.20
2022-09-07T12:35:10.947Z,6.30
2022-09-07T12:36:10.922Z,6.10
2022-09-07T12:37:12.623Z,5.40
2022-09-07T12:38:10.823Z,5.30
2022-09-07T12:39:10.788Z,5.10
2022-09-07T12:40:10.782Z,4.80
2022-09-07T12:41:10.707Z,4.50
2022-09-07T12:43:10.622Z,4.20
2022-09-07T12:44:10.580Z,4.60
2022-09-07T12:45:10.540Z,4.60
2022-09-07T12:46:10.553Z,4.80
2022-09-07T12:47:10.460Z,4.80
2022-09-07T12:48:10.417Z,4.70
2022-09-07T12:49:10.378Z,4.60
2022-09-07T12:50:10.403Z,4.00
2022-09-07T12:51:10.298Z,4.40
2022-09-07T12:52:15.708Z,4.60
2022-09-07T12:53:10.216Z,4.40
2022-09-07T12:54:10.181Z,4.70
2022-09-07T12:55:27.470Z,4.70
2022-09-07T12:56:17.784Z,4.80
2022-09-07T12:58:10.010Z,5.10
2022-09-07T12:59:17.326Z,4.70
2022-09-07T13:00:09.930Z,4.70
2022-09-07T13:01:10.077Z,4.50
2022-09-07T13:02:09.999Z,4.30
2022-09-07T13:03:49.532Z,5.10
2022-09-07T13:04:09.768Z,4.80
2022-09-07T13:05:09.728Z,5.30
2022-09-07T13:06:09.881Z,5.00
2022-09-07T13:07:09.649Z,5.70
2022-09-07T13:08:09.701Z,5.50
2022-09-07T13:09:09.566Z,5.70
2022-09-07T13:10:09.524Z,5.80
2022-09-07T13:11:09.487Z,4.90
2022-09-07T13:12:09.514Z,5.70
2022-09-07T13:13:09.403Z,5.50
2022-09-07T13:14:10.022Z,5.40
2022-09-07T13:15:12.695Z,5.10
2022-09-07T13:16:09.311Z,5.00
2022-09-07T13:17:16.672Z,4.60
2022-09-07T13:18:09.202Z,4.80
2022-09-07T13:19:09.244Z,4.50
2022-09-07T13:20:09.118Z,4.00
2022-09-07T13:21:09.114Z,4.00
2022-09-07T13:22:09.040Z,3.60
2022-09-07T13:23:08.999Z,3.60
2022-09-07T13:25:08.922Z,3.70
2022-09-07T13:26:08.874Z,3.90
2022-09-07T13:27:08.837Z,3.70
2022-09-07T13:28:08.793Z,3.50
2022-09-07T13:29:08.769Z,4.00
2022-09-07T13:30:08.712Z,4.20
2022-09-07T13:31:08.742Z,3.80
2022-09-07T13:32:08.632Z,3.80
2022-09-07T13:33:08.937Z,3.90
2022-09-07T13:34:12.981Z,3.90
2022-09-07T13:35:09.140Z,3.60
2022-09-07T13:36:08.636Z,3.60
2022-09-07T13:38:08.464Z,3.80
2022-09-07T13:39:08.349Z,3.50
2022-09-07T13:40:08.382Z,3.20
2022-09-07T13:41:08.271Z,3.30
2022-09-07T13:42:09.115Z,3.10
2022-09-07T13:43:08.405Z,3.40
2022-09-07T13:44:08.284Z,3.30
2022-09-07T13:45:08.110Z,3.00
2022-09-07T13:46:08.343Z,3.20
2022-09-07T13:47:08.174Z,2.90
2022-09-07T13:48:08.636Z,3.20
2022-09-07T13:49:08.615Z,2.50
2022-09-07T13:50:08.536Z,3.20
2022-09-07T13:51:10.500Z,3.10
2022-09-07T13:52:07.823Z,2.50
2022-09-07T13:53:28.077Z,2.50
2022-09-07T13:54:26.131Z,2.50
2022-09-07T13:55:07.701Z,2.30
2022-09-07T13:56:13.955Z,2.60
2022-09-07T13:58:14.261Z,2.40
2022-09-07T13:59:22.686Z,3.00
2022-09-07T14:00:07.651Z,2.70
2022-09-07T14:01:08.188Z,2.80
2022-09-07T14:02:07.471Z,2.80
2022-09-07T14:03:07.382Z,2.40
2022-09-07T14:04:07.342Z,2.60
2022-09-07T14:05:07.293Z,2.70
2022-09-07T14:06:07.252Z,2.60
2022-09-07T14:07:07.211Z,2.20
2022-09-07T14:08:07.170Z,2.40
2022-09-07T14:09:07.151Z,2.60
2022-09-07T14:10:07.091Z,2.40
2022-09-07T14:11:07.049Z,2.10
2022-09-07T14:12:07.032Z,2.40
2022-09-07T14:13:06.971Z,2.60
2022-09-07T14:14:06.925Z,2.40
2022-09-07T14:15:09.060Z,2.50
2022-09-07T14:16:06.842Z,2.20
2022-09-07T14:17:06.806Z,2.60
2022-09-07T14:18:06.763Z,2.80
2022-09-07T14:19:06.723Z,2.40
2022-09-07T14:20:06.687Z,2.70
2022-09-07T14:21:06.644Z,2.50
2022-09-07T14:22:06.603Z,2.30
2022-09-07T14:23:06.561Z,2.50
2022-09-07T14:24:06.519Z,2.40
2022-09-07T14:25:06.479Z,2.40
2022-09-07T14:27:06.400Z,2.30
2022-09-07T14:28:06.376Z,2.50
2022-09-07T14:29:06.315Z,2.20
2022-09-07T14:30:06.277Z,2.30
2022-09-07T14:31:06.317Z,2.50
2022-09-07T14:32:06.195Z,2.30
2022-09-07T14:33:06.155Z,2.20
2022-09-07T14:34:06.748Z,2.30
2022-09-07T14:35:06.072Z,2.20
2022-09-07T14:36:18.017Z,1.90
2022-09-07T14:37:05.990Z,2.00
2022-09-07T14:38:05.955Z,2.30
2022-09-07T14:39:06.047Z,2.20
2022-09-07T14:40:06.003Z,2.20
2022-09-07T14:41:05.828Z,2.10
2022-09-07T14:42:05.788Z,2.00
2022-09-07T14:43:05.747Z,1.90
2022-09-07T14:44:05.727Z,1.60